createdAt,value
2022-10-18T00:00:44.663Z,13.00
2022-10-18T00:03:11.413Z,12.90
2022-10-18T00:05:38.157Z,13.00
2022-10-18T00:08:05.040Z,13.00
2022-10-18T00:10:31.777Z,13.00
2022-10-18T00:12:58.485Z,13.00
2022-10-18T00:15:25.307Z,13.00
2022-10-18T00:17:52.055Z,13.00
2022-10-18T00:20:18.922Z,13.00
2022-10-18T00:22:45.647Z,13.00
2022-10-18T00:25:12.411Z,13.00
2022-10-18T00:27:39.181Z,13.00
2022-10-18T00:30:06.274Z,13.00
2022-10-18T00:32:36.625Z,13.00
2022-10-18T00:35:04.170Z,13.00
2022-10-18T00:37:30.907Z,13.00
2022-10-18T00:39:57.668Z,13.00
2022-10-18T00:42:26.874Z,13.00
2022-10-18T00:45:00.323Z,13.00
2022-10-18T00:47:27.197Z,13.00
2022-10-18T00:49:55.939Z,13.00
2022-10-18T00:52:34.921Z,13.00
2022-10-18T00:55:01.727Z,13.00
2022-10-18T00:57:28.817Z,13.00
2022-10-18T00:59:55.634Z,13.00
2022-10-18T01:02:22.685Z,13.00
2022-10-18T01:04:49.736Z,13.00
2022-10-18T01:07:25.865Z,13.00
2022-10-18T01:09:52.693Z,13.00
2022-10-18T01:12:19.387Z,13.00
2022-10-18T01:14:49.234Z,13.10
2022-10-18T01:17:19.112Z,13.10
2022-10-18T01:20:04.837Z,13.00
2022-10-18T01:22:31.520Z,13.00
2022-10-18T01:27:43.729Z,13.00
2022-10-18T01:30:29.099Z,13.00
2022-10-18T01:33:00.756Z,13.00
2022-10-18T01:35:33.813Z,13.00
2022-10-18T01:38:01.653Z,13.00
2022-10-18T01:40:29.289Z,13.00
2022-10-18T01:42:56.088Z,13.00
2022-10-18T01:45:24.123Z,13.00
2022-10-18T01:47:51.242Z,13.00
2022-10-18T01:50:27.630Z,13.00
2022-10-18T01:52:54.403Z,13.00
2022-10-18T01:55:24.002Z,13.00
2022-10-18T01:58:13.610Z,12.90
2022-10-18T02:00:42.245Z,13.00
2022-10-18T02:03:17.974Z,12.90
2022-10-18T02:05:48.856Z,12.90
2022-10-18T02:08:37.591Z,12.90
2022-10-18T02:11:08.875Z,12.90
2022-10-18T02:13:38.965Z,12.90
2022-10-18T02:16:08.842Z,12.90
2022-10-18T02:18:57.360Z,12.90
2022-10-18T02:21:25.366Z,13.00
2022-10-18T02:23:52.478Z,13.00
2022-10-18T02:26:19.421Z,12.90
2022-10-18T02:28:46.176Z,12.90
2022-10-18T02:31:20.820Z,12.90
2022-10-18T02:33:52.769Z,12.90
2022-10-18T02:36:23.797Z,12.80
2022-10-18T02:38:53.359Z,12.80
2022-10-18T02:41:27.067Z,12.80
2022-10-18T02:43:54.271Z,12.80
2022-10-18T02:46:21.061Z,12.80
2022-10-18T02:48:47.926Z,12.70
2022-10-18T02:51:14.677Z,12.70
2022-10-18T02:53:41.514Z,12.70
2022-10-18T02:56:08.434Z,12.60
2022-10-18T02:58:35.298Z,12.60
2022-10-18T03:01:02.028Z,12.60
2022-10-18T03:03:28.765Z,12.60
2022-10-18T03:05:55.493Z,12.60
2022-10-18T03:08:22.805Z,12.60
2022-10-18T03:10:49.580Z,12.60
2022-10-18T03:13:16.495Z,12.60
2022-10-18T03:15:43.326Z,12.60
2022-10-18T03:18:10.115Z,12.60
2022-10-18T03:20:36.942Z,12.50
2022-10-18T03:23:03.752Z,12.50
2022-10-18T03:25:30.522Z,12.50
2022-10-18T03:27:57.389Z,12.50
2022-10-18T03:30:24.194Z,12.50
2022-10-18T03:32:50.923Z,12.50
2022-10-18T03:35:17.695Z,12.50
2022-10-18T03:37:44.417Z,12.50
2022-10-18T03:40:11.342Z,12.50
2022-10-18T03:42:38.180Z,12.50
2022-10-18T03:45:05.198Z,12.50
2022-10-18T03:47:31.947Z,12.50
2022-10-18T03:49:58.742Z,12.50
2022-10-18T03:52:25.524Z,12.40
2022-10-18T03:54:52.271Z,12.40
2022-10-18T03:57:19.013Z,12.30
2022-10-18T03:59:45.748Z,12.30
2022-10-18T04:02:12.520Z,12.30
2022-10-18T04:04:39.226Z,12.20
2022-10-18T04:07:05.942Z,12.20
2022-10-18T04:09:32.669Z,12.20
2022-10-18T04:11:59.364Z,12.20
2022-10-18T04:14:26.158Z,12.10
2022-10-18T04:16:53.133Z,12.10
2022-10-18T04:19:19.874Z,12.10
2022-10-18T04:21:46.772Z,12.20
2022-10-18T04:24:13.546Z,12.20
2022-10-18T04:26:40.336Z,12.20
2022-10-18T04:29:07.129Z,12.20
2022-10-18T04:31:33.930Z,12.10
2022-10-18T04:34:00.663Z,12.10
2022-10-18T04:36:27.400Z,12.10
2022-10-18T04:38:54.121Z,12.20
2022-10-18T04:41:20.839Z,12.20
2022-10-18T04:43:47.546Z,12.20
2022-10-18T04:46:14.303Z,12.20
2022-10-18T04:48:41.009Z,12.20
2022-10-18T04:51:07.759Z,12.20
2022-10-18T04:53:34.509Z,12.20
2022-10-18T04:56:01.300Z,12.30
2022-10-18T04:58:28.043Z,12.20
2022-10-18T05:00:54.878Z,12.20
2022-10-18T05:03:21.732Z,12.20
2022-10-18T05:06:03.924Z,12.20
2022-10-18T05:08:31.772Z,12.20
2022-10-18T05:10:58.784Z,12.20
2022-10-18T05:13:25.701Z,12.20
2022-10-18T05:15:52.461Z,12.10
2022-10-18T05:18:19.228Z,12.20
2022-10-18T05:20:46.153Z,12.10
2022-10-18T05:23:13.047Z,12.20
2022-10-18T05:25:40.441Z,12.20
2022-10-18T05:28:15.683Z,12.20
2022-10-18T05:30:54.118Z,12.20
2022-10-18T05:33:20.844Z,12.20
2022-10-18T05:35:47.574Z,12.20
2022-10-18T05:38:14.305Z,12.20
2022-10-18T05:40:41.017Z,12.20
2022-10-18T05:43:07.722Z,12.20
2022-10-18T05:45:34.482Z,12.20
2022-10-18T05:48:01.330Z,12.20
2022-10-18T05:50:28.074Z,12.20
2022-10-18T05:53:06.830Z,12.20
2022-10-18T05:55:39.488Z,12.20
2022-10-18T05:58:06.492Z,12.20
2022-10-18T06:00:33.288Z,12.20
2022-10-18T06:03:00.539Z,12.20
2022-10-18T06:05:27.745Z,12.20
2022-10-18T06:07:55.986Z,12.20
2022-10-18T06:10:22.759Z,12.20
2022-10-18T06:12:49.518Z,12.20
2022-10-18T06:15:16.387Z,12.20
2022-10-18T06:17:43.117Z,12.20
2022-10-18T06:20:10.043Z,12.20
2022-10-18T06:22:36.782Z,12.10
2022-10-18T06:25:03.668Z,12.10
2022-10-18T06:27:31.947Z,12.10
2022-10-18T06:29:59.029Z,12.10
2022-10-18T06:32:25.737Z,12.10
2022-10-18T06:34:52.475Z,12.00
2022-10-18T06:37:19.227Z,12.10
2022-10-18T06:39:45.988Z,12.10
2022-10-18T06:42:12.701Z,12.10
2022-10-18T06:44:39.534Z,12.10
2022-10-18T06:47:07.837Z,12.20
2022-10-18T06:49:34.558Z,12.10
2022-10-18T06:52:01.318Z,12.10
2022-10-18T06:54:28.039Z,12.10
2022-10-18T06:56:58.216Z,12.10
2022-10-18T06:59:27.518Z,12.10
2022-10-18T07:01:57.323Z,12.10
2022-10-18T07:04:24.198Z,12.10
2022-10-18T07:06:53.753Z,12.10
2022-10-18T07:09:20.495Z,12.10
2022-10-18T07:11:47.211Z,12.10
2022-10-18T07:14:16.479Z,12.10
2022-10-18T07:16:43.399Z,12.20
2022-10-18T07:19:10.165Z,12.20
2022-10-18T07:21:37.030Z,12.30
2022-10-18T07:24:03.804Z,12.30
2022-10-18T07:26:31.851Z,12.40
2022-10-18T07:29:05.928Z,12.30
2022-10-18T07:31:33.506Z,12.30
2022-10-18T07:34:00.290Z,12.30
2022-10-18T07:36:27.137Z,12.20
2022-10-18T07:38:53.891Z,12.00
2022-10-18T07:41:21.176Z,11.90
2022-10-18T07:43:48.999Z,11.80
2022-10-18T07:46:16.059Z,11.80
2022-10-18T07:48:43.107Z,11.80
2022-10-18T07:51:10.248Z,11.80
2022-10-18T07:53:37.481Z,11.80
2022-10-18T07:56:09.609Z,11.70
2022-10-18T07:58:36.544Z,11.60
2022-10-18T08:01:07.450Z,11.60
2022-10-18T08:03:34.708Z,11.50
2022-10-18T08:06:01.495Z,11.50
2022-10-18T08:08:28.626Z,11.50
2022-10-18T08:10:55.545Z,11.50
2022-10-18T08:13:22.393Z,11.40
2022-10-18T08:15:49.113Z,11.40
2022-10-18T08:18:15.864Z,11.40
2022-10-18T08:20:43.831Z,11.50
2022-10-18T08:23:11.031Z,11.50
2022-10-18T08:25:37.771Z,11.40
2022-10-18T08:28:04.627Z,11.50
2022-10-18T08:30:31.429Z,11.40
2022-10-18T08:32:58.302Z,11.40
2022-10-18T08:35:25.120Z,11.40
2022-10-18T08:37:51.914Z,11.40
2022-10-18T08:40:18.733Z,11.40
2022-10-18T08:43:09.312Z,11.30
2022-10-18T08:45:42.438Z,11.30
2022-10-18T08:48:36.039Z,11.40
2022-10-18T08:51:04.065Z,11.40
2022-10-18T08:53:36.229Z,11.50
2022-10-18T08:56:15.002Z,11.50
2022-10-18T08:58:45.027Z,11.60
2022-10-18T09:01:32.123Z,11.60
2022-10-18T09:03:59.275Z,11.80
2022-10-18T09:06:30.711Z,11.90
2022-10-18T09:09:15.987Z,12.00
2022-10-18T09:12:02.668Z,12.10
2022-10-18T09:14:42.254Z,12.10
2022-10-18T09:17:16.236Z,12.20
2022-10-18T09:20:02.879Z,12.30
2022-10-18T09:22:41.923Z,12.30
2022-10-18T09:25:22.609Z,12.30
2022-10-18T09:27:53.734Z,12.40
2022-10-18T09:30:20.768Z,12.30
2022-10-18T09:32:47.441Z,12.30
2022-10-18T09:35:19.742Z,12.30
2022-10-18T09:37:47.476Z,12.40
2022-10-18T09:40:18.076Z,12.50
2022-10-18T09:42:55.561Z,12.50
2022-10-18T09:45:33.943Z,12.60
2022-10-18T09:48:03.838Z,12.60
2022-10-18T09:50:39.465Z,12.50
2022-10-18T09:53:06.441Z,12.50
2022-10-18T09:55:36.310Z,12.70
2022-10-18T09:58:05.643Z,12.70
2022-10-18T10:00:38.887Z,12.70
2022-10-18T10:03:15.789Z,12.70
2022-10-18T10:05:43.241Z,12.60
2022-10-18T10:08:10.440Z,12.50
2022-10-18T10:10:41.016Z,12.50
2022-10-18T10:13:16.028Z,12.60
2022-10-18T10:15:51.853Z,12.60
2022-10-18T10:18:30.146Z,12.60
2022-10-18T10:21:00.244Z,12.70
2022-10-18T10:23:27.063Z,12.80
2022-10-18T10:25:55.052Z,12.70
2022-10-18T10:28:23.887Z,12.70
2022-10-18T10:30:50.764Z,12.70
2022-10-18T10:33:36.981Z,12.80
2022-10-18T10:36:05.413Z,12.80
2022-10-18T10:38:32.349Z,12.90
2022-10-18T10:40:59.944Z,12.90
2022-10-18T10:43:43.787Z,12.90
2022-10-18T10:46:12.756Z,12.80
2022-10-18T10:48:42.095Z,12.90
2022-10-18T10:51:12.191Z,12.80
2022-10-18T10:53:41.895Z,12.80
2022-10-18T10:56:34.787Z,12.80
2022-10-18T10:59:07.373Z,12.80
2022-10-18T11:01:34.310Z,12.90
2022-10-18T11:04:02.841Z,13.00
2022-10-18T11:06:38.763Z,13.10
2022-10-18T11:09:10.592Z,13.10
2022-10-18T11:11:40.861Z,13.10
2022-10-18T11:14:25.669Z,13.10
2022-10-18T11:17:14.859Z,13.20
2022-10-18T11:19:49.761Z,13.30
2022-10-18T11:22:19.053Z,13.30
2022-10-18T11:24:45.942Z,13.30
2022-10-18T11:27:31.355Z,13.30
2022-10-18T11:30:26.362Z,13.30
2022-10-18T11:32:53.118Z,13.40
2022-10-18T11:35:19.813Z,13.50
2022-10-18T11:37:46.724Z,13.50
2022-10-18T11:40:16.550Z,13.50
2022-10-18T11:42:54.339Z,13.50
2022-10-18T11:48:09.969Z,13.30
2022-10-18T11:50:39.447Z,13.20
2022-10-18T11:53:11.295Z,13.20
2022-10-18T11:55:44.064Z,13.20
2022-10-18T11:58:10.774Z,13.20
2022-10-18T12:00:50.059Z,13.20
2022-10-18T12:03:27.019Z,13.20
2022-10-18T12:05:55.526Z,13.10
2022-10-18T12:08:42.444Z,13.10
2022-10-18T12:11:12.775Z,13.20
2022-10-18T12:13:44.324Z,13.20
2022-10-18T12:16:11.342Z,13.30
2022-10-18T12:18:45.417Z,13.20
2022-10-18T12:21:12.844Z,13.30
2022-10-18T12:23:45.774Z,13.30
2022-10-18T12:26:12.758Z,13.20
2022-10-18T12:28:58.459Z,13.30
2022-10-18T12:31:30.115Z,13.30
2022-10-18T12:33:58.537Z,13.40
2022-10-18T12:36:34.190Z,13.30
2022-10-18T12:39:02.358Z,13.30
2022-10-18T12:41:30.423Z,13.30
2022-10-18T12:44:00.861Z,13.30
2022-10-18T12:46:43.063Z,13.20
2022-10-18T12:49:11.145Z,13.20
2022-10-18T12:51:49.096Z,13.30
2022-10-18T12:54:16.823Z,13.20
2022-10-18T12:56:43.840Z,13.20
2022-10-18T12:59:17.030Z,13.20
2022-10-18T13:01:53.316Z,13.10
2022-10-18T13:04:29.587Z,13.10
2022-10-18T13:07:05.582Z,13.10
2022-10-18T13:09:36.133Z,13.10
2022-10-18T13:12:08.943Z,13.10
2022-10-18T13:15:12.735Z,13.10
2022-10-18T13:17:51.907Z,13.10
2022-10-18T13:20:27.278Z,13.10
2022-10-18T13:23:13.333Z,13.10
2022-10-18T13:25:54.266Z,13.00
2022-10-18T13:28:21.021Z,13.00
2022-10-18T13:30:50.587Z,13.00
2022-10-18T13:33:29.507Z,13.00
2022-10-18T13:35:57.858Z,12.90
2022-10-18T13:38:30.657Z,12.90
2022-10-18T13:41:01.784Z,12.80
2022-10-18T13:43:51.530Z,12.70
2022-10-18T13:46:19.087Z,12.60
2022-10-18T13:48:47.102Z,12.50
2022-10-18T13:51:16.608Z,12.50
2022-10-18T13:53:48.685Z,12.50
2022-10-18T13:56:15.429Z,12.40
2022-10-18T13:59:13.497Z,12.40
2022-10-18T14:01:53.133Z,12.50
2022-10-18T14:04:46.599Z,12.50
2022-10-18T14:07:16.770Z,12.50
2022-10-18T14:09:47.836Z,12.40
2022-10-18T14:12:25.122Z,12.40
2022-10-18T14:14:57.787Z,12.40
2022-10-18T14:17:42.964Z,12.40
2022-10-18T14:20:29.559Z,12.30
2022-10-18T14:22:56.537Z,12.30
2022-10-18T14:25:26.745Z,12.30
2022-10-18T14:28:16.617Z,12.20
2022-10-18T14:31:08.599Z,12.10
2022-10-18T14:33:36.975Z,12.10
2022-10-18T14:36:15.360Z,12.10
2022-10-18T14:38:57.999Z,12.10
2022-10-18T14:41:26.000Z,12.10
2022-10-18T14:43:53.916Z,12.10
2022-10-18T14:46:27.237Z,12.10
2022-10-18T14:48:59.960Z,12.10
2022-10-18T14:51:27.841Z,12.10
2022-10-18T14:53:54.899Z,12.00
2022-10-18T14:56:27.745Z,12.10
2022-10-18T14:58:56.125Z,12.10
2022-10-18T15:01:24.431Z,12.10
2022-10-18T15:03:55.289Z,12.10
2022-10-18T15:06:22.131Z,12.10
2022-10-18T15:08:51.436Z,12.10
2022-10-18T15:11:18.323Z,12.10
2022-10-18T15:13:49.972Z,12.10
2022-10-18T15:16:20.661Z,12.10
2022-10-18T15:18:59.633Z,12.10
2022-10-18T15:21:26.555Z,12.10
2022-10-18T15:23:54.972Z,12.10
2022-10-18T15:26:24.477Z,12.00
2022-10-18T15:28:53.624Z,12.10
2022-10-18T15:31:25.048Z,12.00
2022-10-18T15:33:52.386Z,12.00
2022-10-18T15:36:28.214Z,11.90
2022-10-18T15:39:05.374Z,11.90
2022-10-18T15:41:49.117Z,11.90
2022-10-18T15:44:15.883Z,11.90
2022-10-18T15:46:42.706Z,11.90
2022-10-18T15:49:24.512Z,11.90
2022-10-18T15:52:11.486Z,11.90
2022-10-18T15:54:38.837Z,11.90
2022-10-18T15:57:09.951Z,11.90
2022-10-18T15:59:39.521Z,11.90
2022-10-18T16:02:11.821Z,11.90
2022-10-18T16:04:38.550Z,11.90
2022-10-18T16:07:05.305Z,11.90
2022-10-18T16:09:32.151Z,12.00
2022-10-18T16:11:58.908Z,12.00
2022-10-18T16:14:25.985Z,12.00
2022-10-18T16:16:54.214Z,11.90
2022-10-18T16:19:24.065Z,11.80
2022-10-18T16:21:51.809Z,11.60
2022-10-18T16:24:18.763Z,11.50
2022-10-18T16:26:45.823Z,11.40
2022-10-18T16:29:16.405Z,11.30
2022-10-18T16:31:43.462Z,11.30
2022-10-18T16:34:11.319Z,11.20
2022-10-18T16:36:38.140Z,11.20
2022-10-18T16:39:07.706Z,11.10
2022-10-18T16:41:34.509Z,11.10
2022-10-18T16:44:01.223Z,11.10
2022-10-18T16:46:29.305Z,11.00
2022-10-18T16:48:56.461Z,10.90
2022-10-18T16:51:23.237Z,10.90
2022-10-18T16:53:50.073Z,10.90
2022-10-18T16:56:18.054Z,10.90
2022-10-18T16:58:45.425Z,10.80
2022-10-18T17:01:16.714Z,10.80
2022-10-18T17:03:43.886Z,10.80
2022-10-18T17:06:15.253Z,10.80
2022-10-18T17:08:42.212Z,10.70
2022-10-18T17:11:09.722Z,10.70
2022-10-18T17:13:36.485Z,10.70
2022-10-18T17:16:03.902Z,10.80
2022-10-18T17:18:31.211Z,10.80
2022-10-18T17:21:00.698Z,10.90
2022-10-18T17:23:27.463Z,10.90
2022-10-18T17:26:05.539Z,10.90
2022-10-18T17:28:41.317Z,10.90
2022-10-18T17:31:08.138Z,10.90
2022-10-18T17:33:35.124Z,10.90
2022-10-18T17:36:02.179Z,10.90
2022-10-18T17:38:28.928Z,10.90
2022-10-18T17:40:56.824Z,10.90
2022-10-18T17:43:23.720Z,11.00
2022-10-18T17:45:54.426Z,10.90
2022-10-18T17:48:21.741Z,10.90
2022-10-18T17:50:48.464Z,10.90
2022-10-18T17:53:16.611Z,10.80
2022-10-18T17:55:43.365Z,10.80
2022-10-18T17:58:10.300Z,10.70
2022-10-18T18:00:37.029Z,10.70
2022-10-18T18:03:04.126Z,10.80
2022-10-18T18:05:31.672Z,10.80
2022-10-18T18:08:02.884Z,10.80
2022-10-18T18:10:34.140Z,10.90
2022-10-18T18:13:01.230Z,10.90
2022-10-18T18:15:28.348Z,10.90
2022-10-18T18:17:57.477Z,10.90
2022-10-18T18:20:25.212Z,10.90
2022-10-18T18:22:52.172Z,10.90
2022-10-18T18:25:18.875Z,11.00
2022-10-18T18:27:45.637Z,11.00
2022-10-18T18:30:12.526Z,11.00
2022-10-18T18:32:39.713Z,11.00
2022-10-18T18:35:06.662Z,10.90
2022-10-18T18:37:33.542Z,10.90
2022-10-18T18:40:00.236Z,10.80
2022-10-18T18:42:27.040Z,10.70
2022-10-18T18:44:53.829Z,10.70
2022-10-18T18:47:23.327Z,10.60
2022-10-18T18:49:51.639Z,10.40
2022-10-18T18:52:18.398Z,10.40
2022-10-18T18:54:45.246Z,10.40
2022-10-18T18:57:12.027Z,10.40
2022-10-18T18:59:38.854Z,10.40
2022-10-18T19:02:05.552Z,10.40
2022-10-18T19:04:32.791Z,10.40
2022-10-18T19:06:59.501Z,10.40
2022-10-18T19:09:27.390Z,10.40
2022-10-18T19:11:55.143Z,10.30
2022-10-18T19:16:54.832Z,10.30
2022-10-18T19:19:22.536Z,10.30
2022-10-18T19:21:51.745Z,10.20
2022-10-18T19:24:19.009Z,10.30
2022-10-18T19:26:47.853Z,10.30
2022-10-18T19:29:16.658Z,10.30
2022-10-18T19:31:44.061Z,10.30
2022-10-18T19:34:11.941Z,10.30
2022-10-18T19:36:40.151Z,10.30
2022-10-18T19:39:08.364Z,10.20
2022-10-18T19:41:35.183Z,10.20
2022-10-18T19:44:01.916Z,10.10
2022-10-18T19:46:28.908Z,10.00
2022-10-18T19:48:55.740Z,9.90
2022-10-18T19:51:26.895Z,9.90
2022-10-18T19:53:55.136Z,10.00
2022-10-18T19:56:23.416Z,10.00
2022-10-18T19:58:50.686Z,9.90
2022-10-18T20:01:17.749Z,9.90
2022-10-18T20:03:45.222Z,10.00
2022-10-18T20:06:12.463Z,10.00
2022-10-18T20:08:39.337Z,10.00
2022-10-18T20:11:11.371Z,10.00
2022-10-18T20:13:38.123Z,9.90
2022-10-18T20:16:05.746Z,9.90
2022-10-18T20:18:32.879Z,9.80
2022-10-18T20:21:00.548Z,9.70
2022-10-18T20:23:27.267Z,9.60
2022-10-18T20:25:56.841Z,9.60
2022-10-18T20:28:24.822Z,9.60
2022-10-18T20:31:02.329Z,9.60
2022-10-18T20:33:29.375Z,9.60
2022-10-18T20:35:56.254Z,9.60
2022-10-18T20:38:23.828Z,9.50
2022-10-18T20:40:50.593Z,9.50
2022-10-18T20:43:17.412Z,9.50
2022-10-18T20:45:44.191Z,9.50
2022-10-18T20:48:11.012Z,9.50
2022-10-18T20:50:40.530Z,9.50
2022-10-18T20:53:07.279Z,9.50
2022-10-18T20:55:34.031Z,9.50
2022-10-18T20:58:00.801Z,9.60
2022-10-18T21:00:27.615Z,9.60
2022-10-18T21:02:57.430Z,9.70
2022-10-18T21:05:24.164Z,9.70
2022-10-18T21:07:50.951Z,9.70
2022-10-18T21:10:17.663Z,9.70
2022-10-18T21:12:46.480Z,9.70
2022-10-18T21:15:13.335Z,9.70
2022-10-18T21:17:40.083Z,9.70
2022-10-18T21:20:07.344Z,9.70
2022-10-18T21:22:34.562Z,9.70
2022-10-18T21:25:01.566Z,9.70
2022-10-18T21:27:28.309Z,9.70
2022-10-18T21:29:55.097Z,9.70
2022-10-18T21:32:21.797Z,9.70
2022-10-18T21:34:48.545Z,9.60
2022-10-18T21:37:15.494Z,9.60
2022-10-18T21:39:42.410Z,9.60
2022-10-18T21:42:09.178Z,9.60
2022-10-18T21:44:36.877Z,9.70
2022-10-18T21:47:03.612Z,9.70
2022-10-18T21:49:35.007Z,9.70
2022-10-18T21:52:05.419Z,9.70
2022-10-18T21:54:32.168Z,9.70
2022-10-18T21:56:58.887Z,9.70
2022-10-18T21:59:25.640Z,9.70
2022-10-18T22:01:52.419Z,9.70
2022-10-18T22:04:23.319Z,9.70
2022-10-18T22:06:50.755Z,9.70
2022-10-18T22:09:17.497Z,9.70
2022-10-18T22:11:46.810Z,9.60
2022-10-18T22:14:13.699Z,9.60
2022-10-18T22:16:40.428Z,9.50
2022-10-18T22:19:07.577Z,9.60
2022-10-18T22:21:34.508Z,9.50
2022-10-18T22:24:03.953Z,9.50
2022-10-18T22:26:31.983Z,9.50
2022-10-18T22:29:00.595Z,9.50
2022-10-18T22:31:28.774Z,9.40
2022-10-18T22:33:56.386Z,9.40
2022-10-18T22:36:23.889Z,9.40
2022-10-18T22:38:50.625Z,9.40
2022-10-18T22:41:17.494Z,9.40
2022-10-18T22:43:44.360Z,9.30
2022-10-18T22:46:12.419Z,9.30
2022-10-18T22:48:39.444Z,9.30
2022-10-18T22:51:06.313Z,9.30
2022-10-18T22:53:33.704Z,9.30
2022-10-18T22:56:01.075Z,9.30
2022-10-18T22:58:27.853Z,9.20
2022-10-18T23:01:01.664Z,9.20
2022-10-18T23:03:28.472Z,9.20
2022-10-18T23:05:55.209Z,9.20
2022-10-18T23:08:22.000Z,9.20
2022-10-18T23:10:52.077Z,9.20
2022-10-18T23:13:18.816Z,9.20
2022-10-18T23:15:45.558Z,9.20
2022-10-18T23:18:12.289Z,9.20
2022-10-18T23:20:39.102Z,9.20
2022-10-18T23:23:05.893Z,9.20
2022-10-18T23:25:35.489Z,9.20
2022-10-18T23:28:02.255Z,9.20
2022-10-18T23:30:29.083Z,9.10
2022-10-18T23:32:55.798Z,9.20
2022-10-18T23:35:22.591Z,9.10
2022-10-18T23:37:49.332Z,9.10
2022-10-18T23:40:16.083Z,9.20
2022-10-18T23:42:42.863Z,9.10
2022-10-18T23:45:09.859Z,9.10
2022-10-18T23:47:36.683Z,9.10
2022-10-18T23:50:03.716Z,9.00
2022-10-18T23:52:30.444Z,9.00
2022-10-18T23:54:57.156Z,9.10
2022-10-18T23:57:23.885Z,9.10
2022-10-18T23:59:50.674Z,9.10
